createdAt,value
2023-05-19T00:04:23.390Z,9.20
2023-05-19T00:09:17.012Z,9.02
2023-05-19T00:14:11.133Z,10.27
2023-05-19T00:19:10.371Z,9.40
2023-05-19T00:24:03.929Z,8.80
2023-05-19T00:29:00.034Z,9.63
2023-05-19T00:33:56.378Z,9.52
2023-05-19T00:38:55.550Z,9.38
2023-05-19T00:43:49.557Z,9.30
2023-05-19T00:48:44.765Z,9.50
2023-05-19T00:53:38.078Z,9.45
2023-05-19T00:58:34.922Z,10.05
2023-05-19T01:03:31.124Z,10.82
2023-05-19T01:08:25.090Z,11.45
2023-05-19T01:13:20.928Z,10.18
2023-05-19T01:18:21.328Z,10.10
2023-05-19T01:23:29.248Z,9.40
2023-05-19T01:28:59.784Z,9.10
2023-05-19T01:33:56.057Z,9.70
2023-05-19T01:38:52.346Z,10.00
2023-05-19T01:43:46.451Z,9.57
2023-05-19T01:48:40.345Z,9.93
2023-05-19T01:53:35.044Z,9.75
2023-05-19T01:58:39.037Z,10.65
2023-05-19T02:03:44.186Z,10.63
2023-05-19T02:08:45.586Z,9.93
2023-05-19T02:13:50.314Z,9.70
2023-05-19T02:18:45.668Z,10.02
2023-05-19T02:23:41.340Z,10.00
2023-05-19T02:28:34.541Z,9.50
2023-05-19T02:33:27.826Z,10.73
2023-05-19T02:38:21.478Z,10.68
2023-05-19T02:43:16.145Z,11.30
2023-05-19T02:48:09.385Z,11.55
2023-05-19T02:53:02.613Z,10.52
2023-05-19T02:57:55.826Z,10.25
2023-05-19T03:02:53.126Z,10.18
2023-05-19T03:07:46.845Z,10.82
2023-05-19T03:12:40.107Z,9.93
2023-05-19T03:17:34.530Z,10.35
2023-05-19T03:22:29.386Z,9.98
2023-05-19T03:27:22.659Z,11.23
2023-05-19T03:32:16.027Z,10.95
2023-05-19T03:37:10.884Z,10.75
2023-05-19T03:42:10.035Z,10.98
2023-05-19T03:47:07.167Z,11.27
2023-05-19T03:52:18.441Z,11.30
2023-05-19T03:57:20.615Z,11.57
2023-05-19T04:02:14.149Z,11.43
2023-05-19T04:07:08.013Z,11.50
2023-05-19T04:12:01.847Z,11.18
2023-05-19T04:16:56.432Z,11.07
2023-05-19T04:21:49.767Z,11.38
2023-05-19T04:26:46.134Z,12.30
2023-05-19T04:31:42.211Z,12.80
2023-05-19T04:36:40.769Z,11.98
2023-05-19T04:41:34.988Z,12.00
2023-05-19T04:46:31.170Z,11.80
2023-05-19T04:51:29.225Z,10.40
2023-05-19T04:56:27.605Z,11.10
2023-05-19T05:01:26.277Z,12.10
2023-05-19T05:06:21.034Z,12.15
2023-05-19T05:11:15.611Z,12.23
2023-05-19T05:16:12.324Z,12.40
2023-05-19T05:21:07.187Z,12.45
2023-05-19T05:26:07.157Z,13.55
2023-05-19T05:31:00.982Z,13.00
2023-05-19T05:35:55.639Z,12.25
2023-05-19T05:40:50.361Z,15.77
2023-05-19T05:45:44.331Z,12.10
2023-05-19T05:50:38.861Z,12.38
2023-05-19T05:55:36.831Z,13.32
2023-05-19T06:00:31.937Z,12.43
2023-05-19T06:05:25.605Z,11.52
2023-05-19T06:10:21.448Z,12.13
2023-05-19T06:15:17.493Z,12.75
2023-05-19T06:20:36.922Z,13.48
2023-05-19T06:25:35.106Z,13.05
2023-05-19T06:30:29.958Z,12.43
2023-05-19T06:35:34.800Z,13.65
2023-05-19T06:40:28.420Z,13.82
2023-05-19T06:45:25.365Z,13.68
2023-05-19T06:50:21.140Z,13.57
2023-05-19T06:55:16.301Z,14.40
2023-05-19T07:00:13.406Z,15.18
2023-05-19T07:05:11.594Z,15.80
2023-05-19T07:10:08.538Z,14.05
2023-05-19T07:15:02.049Z,15.13
2023-05-19T07:19:55.674Z,15.45
2023-05-19T07:24:52.545Z,15.38
2023-05-19T07:29:58.041Z,15.40
2023-05-19T07:34:53.819Z,15.50
2023-05-19T07:39:47.074Z,15.10
2023-05-19T07:44:58.336Z,15.10
2023-05-19T07:49:52.066Z,15.40
2023-05-19T07:54:45.648Z,15.25
2023-05-19T07:59:38.831Z,15.10
2023-05-19T08:04:33.683Z,15.02
2023-05-19T08:09:28.544Z,14.32
2023-05-19T08:14:22.949Z,14.45
2023-05-19T08:19:16.766Z,13.50
2023-05-19T08:24:11.697Z,13.05
2023-05-19T08:29:04.863Z,12.73
2023-05-19T08:33:58.082Z,12.45
2023-05-19T08:38:51.612Z,11.63
2023-05-19T08:43:46.323Z,11.88
2023-05-19T08:48:48.195Z,11.50
2023-05-19T08:53:45.414Z,11.35
2023-05-19T08:58:40.600Z,11.32
2023-05-19T09:03:38.471Z,12.05
2023-05-19T09:08:31.862Z,11.43
2023-05-19T09:13:32.794Z,11.88
2023-05-19T09:18:27.295Z,12.43
2023-05-19T09:23:22.036Z,9.82
2023-05-19T09:28:16.085Z,11.20
2023-05-19T09:33:13.123Z,11.50
2023-05-19T09:38:19.326Z,10.52
2023-05-19T09:43:14.214Z,11.20
2023-05-19T09:48:10.269Z,11.38
2023-05-19T09:53:09.145Z,10.88
2023-05-19T10:02:59.942Z,10.35
2023-05-19T10:07:56.689Z,10.27
2023-05-19T10:12:51.087Z,10.48
2023-05-19T10:17:48.370Z,9.55
2023-05-19T10:22:51.056Z,10.30
2023-05-19T10:27:48.575Z,10.05
2023-05-19T10:32:44.064Z,10.18
2023-05-19T10:37:46.413Z,10.48
2023-05-19T10:42:54.301Z,10.30
2023-05-19T10:47:51.706Z,9.07
2023-05-19T10:52:45.662Z,9.40
2023-05-19T10:57:56.184Z,9.20
2023-05-19T11:02:56.315Z,9.52
2023-05-19T11:07:57.653Z,13.43
2023-05-19T11:12:53.171Z,10.65
2023-05-19T11:17:50.794Z,10.38
2023-05-19T11:23:01.812Z,9.38
2023-05-19T11:27:59.883Z,9.80
2023-05-19T11:33:01.894Z,8.90
2023-05-19T11:37:56.136Z,8.63
2023-05-19T11:42:49.362Z,8.60
2023-05-19T11:48:00.091Z,8.15
2023-05-19T11:52:57.195Z,7.75
2023-05-19T11:58:05.023Z,7.05
2023-05-19T12:03:00.418Z,7.72
2023-05-19T12:07:54.152Z,6.68
2023-05-19T12:12:47.363Z,7.90
2023-05-19T12:17:40.599Z,6.38
2023-05-19T12:22:35.770Z,6.30
2023-05-19T12:27:36.542Z,6.38
2023-05-19T12:32:32.231Z,6.30
2023-05-19T12:37:30.153Z,6.32
2023-05-19T12:42:25.305Z,6.75
2023-05-19T12:47:19.910Z,6.25
2023-05-19T12:52:15.343Z,6.03
2023-05-19T12:57:08.977Z,5.97
2023-05-19T13:02:04.465Z,6.47
2023-05-19T13:06:57.708Z,6.45
2023-05-19T13:11:52.289Z,6.40
2023-05-19T13:16:51.028Z,6.65
2023-05-19T13:21:49.924Z,7.05
2023-05-19T13:26:43.355Z,6.47
2023-05-19T13:31:36.823Z,6.50
2023-05-19T13:36:30.248Z,6.80
2023-05-19T13:41:30.414Z,6.90
2023-05-19T13:46:36.388Z,7.10
2023-05-19T13:51:36.850Z,7.82
2023-05-19T13:56:31.585Z,7.05
2023-05-19T14:01:26.407Z,6.70
2023-05-19T14:06:19.938Z,6.57
2023-05-19T14:11:19.652Z,6.53
2023-05-19T14:16:14.349Z,7.43
2023-05-19T14:21:07.589Z,7.43
2023-05-19T14:26:01.305Z,7.10
2023-05-19T14:30:55.142Z,6.63
2023-05-19T14:35:49.732Z,6.93
2023-05-19T14:40:43.343Z,6.57
2023-05-19T14:45:39.110Z,6.85
2023-05-19T14:50:34.275Z,7.20
2023-05-19T14:55:28.998Z,7.25
2023-05-19T15:00:22.314Z,6.68
2023-05-19T15:05:15.503Z,6.72
2023-05-19T15:10:09.563Z,8.02
2023-05-19T15:15:05.198Z,7.63
2023-05-19T15:19:58.540Z,6.95
2023-05-19T15:24:52.435Z,7.47
2023-05-19T15:29:45.717Z,7.18
2023-05-19T15:34:40.334Z,7.68
2023-05-19T15:39:33.792Z,7.68
2023-05-19T15:44:28.929Z,7.93
2023-05-19T15:49:22.794Z,8.00
2023-05-19T15:54:17.622Z,5.35
2023-05-19T15:59:10.812Z,7.63
2023-05-19T16:04:04.519Z,8.43
2023-05-19T16:08:58.258Z,7.47
2023-05-19T16:13:55.910Z,7.63
2023-05-19T16:18:49.504Z,6.95
2023-05-19T16:23:42.788Z,6.95
2023-05-19T16:28:36.043Z,7.80
2023-05-19T16:33:30.709Z,6.55
2023-05-19T16:38:23.919Z,6.72
2023-05-19T16:43:17.245Z,6.25
2023-05-19T16:48:10.576Z,7.05
2023-05-19T16:53:11.186Z,6.18
2023-05-19T16:58:24.126Z,7.07
2023-05-19T17:03:23.269Z,6.03
2023-05-19T17:08:35.969Z,6.32
2023-05-19T17:14:03.260Z,6.47
2023-05-19T17:19:02.408Z,7.13
2023-05-19T17:24:13.292Z,7.38
2023-05-19T17:29:19.065Z,6.78
2023-05-19T17:34:12.375Z,6.55
2023-05-19T17:39:06.999Z,6.68
2023-05-19T17:44:00.817Z,7.03
2023-05-19T17:48:54.028Z,6.72
2023-05-19T17:53:47.826Z,6.82
2023-05-19T17:58:44.308Z,6.70
2023-05-19T18:03:38.200Z,6.80
2023-05-19T18:08:32.363Z,7.05
2023-05-19T18:13:26.233Z,7.93
2023-05-19T18:18:20.860Z,7.70
2023-05-19T18:23:16.761Z,7.22
2023-05-19T18:28:10.026Z,7.40
2023-05-19T18:33:07.429Z,8.00
2023-05-19T18:38:02.089Z,7.60
2023-05-19T18:42:55.380Z,7.55
2023-05-19T18:47:48.914Z,7.07
2023-05-19T18:52:42.387Z,6.80
2023-05-19T18:57:41.320Z,7.05
2023-05-19T19:02:34.630Z,7.07
2023-05-19T19:07:28.056Z,8.57
2023-05-19T19:12:21.408Z,7.40
2023-05-19T19:17:19.433Z,7.30
2023-05-19T19:22:12.825Z,8.25
2023-05-19T19:27:06.714Z,7.10
2023-05-19T19:32:00.027Z,7.35
2023-05-19T19:36:54.805Z,6.85
2023-05-19T19:41:48.053Z,6.95
2023-05-19T19:46:41.428Z,8.38
2023-05-19T19:51:35.480Z,7.13
2023-05-19T19:56:30.093Z,7.88
2023-05-19T20:01:27.620Z,8.98
2023-05-19T20:06:21.456Z,9.10
2023-05-19T20:11:14.652Z,9.77
2023-05-19T20:16:09.764Z,10.52
2023-05-19T20:21:02.999Z,9.75
2023-05-19T20:26:11.063Z,8.70
2023-05-19T20:31:06.584Z,8.90
2023-05-19T20:36:01.221Z,10.20
2023-05-19T20:40:55.163Z,9.68
2023-05-19T20:45:51.556Z,9.77
2023-05-19T20:50:44.834Z,9.98
2023-05-19T20:55:39.812Z,10.25
2023-05-19T21:00:33.362Z,10.18
2023-05-19T21:05:27.068Z,9.25
2023-05-19T21:10:20.351Z,9.15
2023-05-19T21:15:15.172Z,9.32
2023-05-19T21:20:09.697Z,9.77
2023-05-19T21:25:03.042Z,9.68
2023-05-19T21:29:56.299Z,10.13
2023-05-19T21:34:50.956Z,9.40
2023-05-19T21:39:44.422Z,9.77
2023-05-19T21:44:37.617Z,10.68
2023-05-19T21:49:31.363Z,10.82
2023-05-19T21:54:26.082Z,9.55
2023-05-19T21:59:23.275Z,9.45
2023-05-19T22:04:18.520Z,9.27
2023-05-19T22:09:12.074Z,9.18
2023-05-19T22:14:06.990Z,8.88
2023-05-19T22:19:00.327Z,8.45
2023-05-19T22:23:53.726Z,8.85
2023-05-19T22:28:46.868Z,8.15
2023-05-19T22:33:41.460Z,9.13
2023-05-19T22:38:34.742Z,9.07
2023-05-19T22:43:27.953Z,8.52
2023-05-19T22:48:21.148Z,8.95
2023-05-19T22:53:15.630Z,9.13
2023-05-19T22:58:09.131Z,9.18
2023-05-19T23:03:02.362Z,8.65
2023-05-19T23:07:55.651Z,8.68
2023-05-19T23:12:51.573Z,8.57
2023-05-19T23:17:44.813Z,8.27
2023-05-19T23:22:38.025Z,9.25
2023-05-19T23:27:31.163Z,9.02
2023-05-19T23:32:25.821Z,9.25
2023-05-19T23:37:19.029Z,9.85
2023-05-19T23:42:13.230Z,10.80
2023-05-19T23:47:07.063Z,11.40
2023-05-19T23:52:01.758Z,10.73
2023-05-19T23:56:55.904Z,10.30
